createdAt,value
2019-03-21T00:02:01.056Z,12.70
2019-03-21T00:04:31.300Z,12.83
2019-03-21T00:07:01.526Z,11.53
2019-03-21T00:09:31.779Z,12.73
2019-03-21T00:12:05.992Z,11.67
2019-03-21T00:14:55.246Z,12.07
2019-03-21T00:17:28.592Z,12.63
2019-03-21T00:19:59.133Z,13.60
2019-03-21T00:22:29.406Z,14.47
2019-03-21T00:24:59.711Z,13.50
2019-03-21T00:27:30.050Z,13.80
2019-03-21T00:30:00.352Z,15.40
2019-03-21T00:32:30.653Z,13.37
2019-03-21T00:35:00.887Z,14.90
2019-03-21T00:37:31.102Z,15.00
2019-03-21T00:40:03.787Z,17.83
2019-03-21T00:42:34.026Z,14.10
2019-03-21T00:45:04.560Z,15.20
2019-03-21T00:47:34.834Z,13.07
2019-03-21T00:50:05.797Z,16.10
2019-03-21T00:52:36.050Z,15.30
2019-03-21T00:55:08.952Z,14.90
2019-03-21T00:57:39.174Z,14.10
2019-03-21T01:00:13.540Z,14.40
2019-03-21T01:02:43.758Z,15.37
2019-03-21T01:05:14.190Z,14.77
2019-03-21T01:07:44.470Z,14.20
2019-03-21T01:10:15.914Z,14.77
2019-03-21T01:12:46.146Z,13.77
2019-03-21T01:15:16.384Z,14.10
2019-03-21T01:17:46.630Z,14.90
2019-03-21T01:20:16.872Z,13.57
2019-03-21T01:22:47.210Z,17.10
2019-03-21T01:25:20.842Z,15.57
2019-03-21T01:27:51.148Z,16.40
2019-03-21T01:30:21.595Z,16.03
2019-03-21T01:32:53.226Z,17.50
2019-03-21T01:35:23.590Z,16.40
2019-03-21T01:37:53.838Z,15.93
2019-03-21T01:40:25.084Z,19.37
2019-03-21T01:42:55.440Z,15.80
2019-03-21T01:45:25.745Z,17.83
2019-03-21T01:47:55.964Z,17.03
2019-03-21T01:50:26.382Z,17.07
2019-03-21T01:52:57.920Z,17.07
2019-03-21T01:55:29.190Z,17.10
2019-03-21T01:57:59.408Z,18.20
2019-03-21T02:00:32.266Z,18.27
2019-03-21T02:03:02.597Z,15.10
2019-03-21T02:05:32.796Z,15.80
2019-03-21T02:08:04.282Z,16.87
2019-03-21T02:10:34.580Z,16.33
2019-03-21T02:13:05.022Z,16.60
2019-03-21T02:15:35.281Z,14.80
2019-03-21T02:18:05.656Z,16.70
2019-03-21T02:20:35.943Z,17.17
2019-03-21T02:23:07.254Z,16.87
2019-03-21T02:25:37.566Z,17.03
2019-03-21T02:28:07.975Z,15.50
2019-03-21T02:30:39.294Z,15.70
2019-03-21T02:33:14.528Z,16.10
2019-03-21T02:35:44.805Z,17.03
2019-03-21T02:38:15.100Z,16.80
2019-03-21T02:40:45.448Z,17.20
2019-03-21T02:43:15.709Z,16.27
2019-03-21T02:45:46.041Z,16.27
2019-03-21T02:48:16.527Z,18.10
2019-03-21T02:50:47.887Z,17.30
2019-03-21T02:53:18.144Z,17.00
2019-03-21T02:55:49.360Z,18.03
2019-03-21T02:58:19.636Z,17.33
2019-03-21T03:00:49.983Z,16.90
2019-03-21T03:03:20.236Z,17.30
2019-03-21T03:05:50.522Z,18.07
2019-03-21T03:08:20.852Z,17.53
2019-03-21T03:10:52.699Z,18.60
2019-03-21T03:13:22.996Z,18.63
2019-03-21T03:15:54.387Z,17.47
2019-03-21T03:18:24.752Z,18.20
2019-03-21T03:20:55.100Z,16.80
2019-03-21T03:23:25.349Z,18.43
2019-03-21T03:25:55.660Z,17.87
2019-03-21T03:28:26.537Z,15.50
2019-03-21T03:30:58.195Z,14.93
2019-03-21T03:33:28.660Z,17.17
2019-03-21T03:36:00.082Z,16.60
2019-03-21T03:38:31.231Z,15.30
2019-03-21T03:41:01.563Z,16.00
2019-03-21T03:43:31.883Z,18.23
2019-03-21T03:46:03.054Z,17.73
2019-03-21T03:48:33.411Z,17.07
2019-03-21T03:51:03.631Z,15.63
2019-03-21T03:53:33.904Z,16.40
2019-03-21T03:56:04.577Z,17.80
2019-03-21T03:58:35.634Z,16.40
2019-03-21T04:01:06.298Z,16.17
2019-03-21T04:03:36.743Z,15.03
2019-03-21T04:06:07.395Z,18.30
2019-03-21T04:08:37.682Z,17.70
2019-03-21T04:11:07.910Z,15.73
2019-03-21T04:13:41.745Z,16.20
2019-03-21T04:16:12.043Z,16.60
2019-03-21T04:18:42.364Z,16.70
2019-03-21T04:21:12.848Z,14.63
2019-03-21T04:23:43.208Z,14.80
2019-03-21T04:26:20.378Z,17.40
2019-03-21T04:28:50.914Z,13.87
2019-03-21T04:31:21.222Z,16.77
2019-03-21T04:33:53.198Z,15.47
2019-03-21T04:36:23.705Z,15.23
2019-03-21T04:38:54.008Z,15.63
2019-03-21T04:41:24.316Z,14.97
2019-03-21T04:43:54.958Z,16.00
2019-03-21T04:46:25.256Z,16.37
2019-03-21T04:48:55.486Z,14.60
2019-03-21T04:51:25.837Z,16.70
2019-03-21T04:53:57.981Z,15.60
2019-03-21T04:56:28.291Z,16.70
2019-03-21T04:58:58.625Z,17.17
2019-03-21T05:01:28.904Z,14.57
2019-03-21T05:03:59.702Z,16.80
2019-03-21T05:06:32.744Z,15.17
2019-03-21T05:09:01.957Z,15.70
2019-03-21T05:11:32.437Z,16.07
2019-03-21T05:14:02.711Z,15.90
2019-03-21T05:16:33.022Z,15.83
2019-03-21T05:19:05.452Z,17.40
2019-03-21T05:21:35.927Z,16.73
2019-03-21T05:24:07.403Z,15.90
2019-03-21T05:26:37.687Z,16.37
2019-03-21T05:29:10.261Z,16.97
2019-03-21T05:31:40.519Z,17.03
2019-03-21T05:34:10.831Z,18.03
2019-03-21T05:36:41.083Z,17.90
2019-03-21T05:39:11.836Z,16.80
2019-03-21T05:41:42.149Z,17.63
2019-03-21T05:44:32.669Z,16.63
2019-03-21T05:47:02.969Z,15.73
2019-03-21T05:49:34.543Z,17.40
2019-03-21T05:52:05.574Z,17.03
2019-03-21T05:54:36.425Z,17.40
2019-03-21T05:57:08.121Z,16.60
2019-03-21T05:59:38.454Z,16.83
2019-03-21T06:02:09.831Z,17.87
2019-03-21T06:04:40.655Z,16.50
2019-03-21T06:07:24.756Z,16.57
2019-03-21T06:09:55.035Z,18.57
2019-03-21T06:12:26.454Z,16.03
2019-03-21T06:15:02.004Z,17.27
2019-03-21T06:17:33.047Z,18.00
2019-03-21T06:20:23.220Z,16.53
2019-03-21T06:23:29.635Z,16.87
2019-03-21T06:26:13.567Z,15.67
2019-03-21T06:28:43.790Z,16.80
2019-03-21T06:31:14.038Z,16.67
2019-03-21T06:33:44.957Z,15.97
2019-03-21T06:36:15.236Z,16.80
2019-03-21T06:38:45.483Z,15.60
2019-03-21T06:41:18.811Z,15.73
2019-03-21T06:43:49.128Z,16.37
2019-03-21T06:46:19.816Z,15.83
2019-03-21T06:48:52.877Z,14.90
2019-03-21T06:51:24.921Z,16.47
2019-03-21T06:53:55.230Z,18.37
2019-03-21T06:56:25.547Z,16.00
2019-03-21T06:58:55.784Z,16.63
2019-03-21T07:01:26.022Z,15.83
2019-03-21T07:04:06.537Z,15.80
2019-03-21T07:06:29.743Z,15.43
2019-03-21T07:09:00.010Z,15.27
2019-03-21T07:11:30.256Z,15.67
2019-03-21T07:14:00.492Z,15.37
2019-03-21T07:16:30.763Z,15.37
2019-03-21T07:19:01.161Z,13.50
2019-03-21T07:21:31.405Z,13.80
2019-03-21T07:24:01.733Z,14.60
2019-03-21T07:26:31.954Z,14.20
2019-03-21T07:29:02.204Z,15.33
2019-03-21T07:31:32.551Z,15.13
2019-03-21T07:34:02.789Z,14.83
2019-03-21T07:36:33.053Z,17.40
2019-03-21T07:39:04.064Z,15.10
2019-03-21T07:41:34.311Z,14.10
2019-03-21T07:44:07.157Z,16.77
2019-03-21T07:46:37.475Z,13.37
2019-03-21T07:49:07.926Z,16.37
2019-03-21T07:51:38.349Z,16.13
2019-03-21T07:54:08.664Z,15.97
2019-03-21T07:56:38.885Z,15.80
2019-03-21T07:59:09.202Z,17.20
2019-03-21T08:01:39.461Z,16.50
2019-03-21T08:04:10.789Z,17.67
2019-03-21T08:06:41.003Z,16.60
2019-03-21T08:09:11.291Z,15.20
2019-03-21T08:11:41.523Z,15.70
2019-03-21T08:14:11.785Z,16.00
2019-03-21T08:16:43.045Z,16.90
2019-03-21T08:19:13.373Z,16.97
2019-03-21T08:21:43.595Z,16.90
2019-03-21T08:24:13.847Z,18.43
2019-03-21T08:26:44.079Z,17.17
2019-03-21T08:29:14.684Z,17.73
2019-03-21T08:31:44.951Z,16.07
2019-03-21T08:34:15.185Z,16.03
2019-03-21T08:36:45.498Z,15.30
2019-03-21T08:39:15.712Z,17.27
2019-03-21T08:41:45.982Z,17.60
2019-03-21T08:44:16.245Z,15.90
2019-03-21T08:46:46.611Z,16.70
2019-03-21T08:49:16.853Z,17.07
2019-03-21T08:51:48.710Z,15.13
2019-03-21T08:54:19.031Z,16.17
2019-03-21T08:56:49.359Z,15.27
2019-03-21T08:59:22.250Z,14.50
2019-03-21T09:01:52.530Z,14.30
2019-03-21T09:04:22.948Z,15.07
2019-03-21T09:06:53.173Z,15.50
2019-03-21T09:09:23.475Z,14.43
2019-03-21T09:11:53.733Z,14.30
2019-03-21T09:14:24.083Z,14.63
2019-03-21T09:16:54.391Z,14.40
2019-03-21T09:19:24.602Z,15.23
2019-03-21T09:21:54.929Z,12.60
2019-03-21T09:24:26.312Z,13.70
2019-03-21T09:26:56.680Z,14.60
2019-03-21T09:29:26.920Z,13.87
2019-03-21T09:31:57.193Z,13.57
2019-03-21T09:34:27.500Z,13.77
2019-03-21T09:36:57.790Z,11.33
2019-03-21T09:39:28.029Z,12.87
2019-03-21T09:41:58.237Z,12.87
2019-03-21T09:44:29.168Z,12.17
2019-03-21T09:46:59.422Z,13.10
2019-03-21T09:49:29.626Z,14.03
2019-03-21T09:51:59.932Z,12.10
2019-03-21T09:54:30.167Z,10.90
2019-03-21T09:57:00.559Z,12.20
2019-03-21T09:59:30.806Z,12.10
2019-03-21T10:02:01.039Z,11.20
2019-03-21T10:04:31.340Z,13.23
2019-03-21T10:07:01.565Z,12.90
2019-03-21T10:09:31.827Z,12.33
2019-03-21T10:12:02.055Z,12.80
2019-03-21T10:14:32.375Z,12.33
2019-03-21T10:17:02.698Z,12.27
2019-03-21T10:19:32.998Z,12.40
2019-03-21T10:22:03.359Z,11.20
2019-03-21T10:24:33.708Z,12.33
2019-03-21T10:27:04.308Z,13.30
2019-03-21T10:29:34.604Z,13.30
2019-03-21T10:32:13.928Z,13.30
2019-03-21T10:34:36.922Z,13.50
2019-03-21T10:37:07.206Z,15.50
2019-03-21T10:39:37.532Z,13.13
2019-03-21T10:42:07.865Z,12.97
2019-03-21T10:44:38.127Z,13.63
2019-03-21T10:47:08.424Z,12.40
2019-03-21T10:49:40.100Z,12.80
2019-03-21T10:52:10.318Z,12.57
2019-03-21T10:54:40.610Z,14.13
2019-03-21T10:57:10.895Z,13.40
2019-03-21T10:59:41.280Z,13.07
2019-03-21T11:02:11.558Z,12.07
2019-03-21T11:04:41.794Z,12.87
2019-03-21T11:07:10.246Z,11.67
2019-03-21T11:09:40.601Z,12.47
2019-03-21T11:12:10.854Z,12.10
2019-03-21T11:14:43.466Z,11.10
2019-03-21T11:17:14.848Z,11.10
2019-03-21T11:19:45.181Z,13.10
2019-03-21T11:22:16.466Z,12.37
2019-03-21T11:24:46.680Z,11.13
2019-03-21T11:27:17.002Z,11.53
2019-03-21T11:29:47.328Z,12.50
2019-03-21T11:32:17.684Z,11.17
2019-03-21T11:34:47.980Z,13.00
2019-03-21T11:37:18.260Z,12.30
2019-03-21T11:39:48.550Z,12.47
2019-03-21T11:42:18.924Z,13.40
2019-03-21T11:44:49.210Z,12.00
2019-03-21T11:47:19.499Z,12.90
2019-03-21T11:49:49.901Z,11.20
2019-03-21T11:52:20.310Z,10.60
2019-03-21T11:54:50.548Z,11.10
2019-03-21T11:57:20.836Z,13.00
2019-03-21T11:59:52.245Z,12.30
2019-03-21T12:02:27.294Z,11.37
2019-03-21T12:04:54.800Z,12.43
2019-03-21T12:07:25.070Z,11.03
2019-03-21T12:09:55.321Z,12.30
2019-03-21T12:12:25.616Z,12.10
2019-03-21T12:14:55.883Z,12.00
2019-03-21T12:17:27.375Z,10.83
2019-03-21T12:19:57.625Z,11.57
2019-03-21T12:22:30.185Z,10.90
2019-03-21T12:25:00.812Z,11.37
2019-03-21T12:27:32.176Z,12.30
2019-03-21T12:30:02.515Z,9.47
2019-03-21T12:32:33.382Z,10.93
2019-03-21T12:35:04.011Z,11.47
2019-03-21T12:37:40.148Z,11.33
2019-03-21T12:40:10.734Z,11.97
2019-03-21T12:42:41.062Z,11.70
2019-03-21T12:45:11.438Z,11.00
2019-03-21T12:47:41.817Z,12.13
2019-03-21T12:50:12.591Z,14.03
2019-03-21T12:52:42.825Z,13.53
2019-03-21T12:55:13.230Z,12.83
2019-03-21T12:57:43.674Z,12.10
2019-03-21T13:00:14.562Z,13.87
2019-03-21T13:02:44.804Z,13.20
2019-03-21T13:05:21.040Z,14.50
2019-03-21T13:07:51.364Z,12.23
2019-03-21T13:10:21.646Z,14.40
2019-03-21T13:12:51.822Z,15.00
2019-03-21T13:15:29.785Z,16.33
2019-03-21T13:17:54.028Z,16.23
2019-03-21T13:20:24.356Z,15.70
2019-03-21T13:22:54.682Z,15.70
2019-03-21T13:25:24.954Z,12.47
2019-03-21T13:27:55.234Z,14.27
2019-03-21T13:30:25.727Z,15.37
2019-03-21T13:32:55.942Z,15.10
2019-03-21T13:35:32.783Z,15.93
2019-03-21T13:37:58.236Z,16.43
2019-03-21T13:40:28.528Z,15.73
2019-03-21T13:42:58.810Z,15.60
2019-03-21T13:45:29.332Z,16.10
2019-03-21T13:47:59.686Z,16.07
2019-03-21T13:50:31.050Z,15.40
2019-03-21T13:53:05.006Z,15.27
2019-03-21T13:55:33.289Z,15.53
2019-03-21T13:58:03.686Z,18.40
2019-03-21T14:00:33.970Z,16.13
2019-03-21T14:03:04.322Z,15.87
2019-03-21T14:05:37.262Z,18.30
2019-03-21T14:08:07.504Z,16.80
2019-03-21T14:10:37.779Z,16.80
2019-03-21T14:13:08.056Z,17.03
2019-03-21T14:15:38.316Z,16.63
2019-03-21T14:18:08.548Z,14.90
2019-03-21T14:20:38.794Z,16.83
2019-03-21T14:23:16.829Z,16.60
2019-03-21T14:25:40.970Z,15.20
2019-03-21T14:28:11.287Z,16.63
2019-03-21T14:30:42.589Z,14.97
2019-03-21T14:33:12.856Z,15.10
2019-03-21T14:35:43.075Z,14.70
2019-03-21T14:38:25.389Z,15.40
2019-03-21T14:40:45.471Z,16.90
2019-03-21T14:43:15.678Z,16.53
2019-03-21T14:45:46.095Z,15.53
2019-03-21T14:48:16.377Z,18.17
2019-03-21T14:50:46.622Z,16.23
2019-03-21T14:53:28.019Z,15.60
2019-03-21T14:55:48.964Z,16.73
2019-03-21T14:58:19.214Z,18.30
2019-03-21T15:00:49.654Z,15.57
2019-03-21T15:03:21.037Z,14.70
2019-03-21T15:05:51.364Z,16.07
2019-03-21T15:08:21.600Z,16.57
2019-03-21T15:10:51.862Z,16.00
2019-03-21T15:13:22.441Z,16.00
2019-03-21T15:15:52.891Z,16.77
2019-03-21T15:18:23.193Z,17.07
2019-03-21T15:20:53.618Z,16.47
2019-03-21T15:23:25.873Z,16.80
2019-03-21T15:25:56.147Z,15.40
2019-03-21T15:28:26.776Z,16.83
2019-03-21T15:30:57.123Z,16.00
2019-03-21T15:33:27.427Z,16.30
2019-03-21T15:35:57.715Z,16.20
2019-03-21T15:38:28.046Z,16.97
2019-03-21T15:40:58.285Z,15.70
2019-03-21T15:43:28.518Z,16.00
2019-03-21T15:45:58.777Z,15.97
2019-03-21T15:48:29.097Z,15.63
2019-03-21T15:51:04.226Z,15.30
2019-03-21T15:53:31.363Z,15.53
2019-03-21T15:56:01.646Z,16.60
2019-03-21T15:58:31.914Z,15.47
2019-03-21T16:01:02.789Z,17.00
2019-03-21T16:03:33.278Z,13.50
2019-03-21T16:06:03.504Z,16.73
2019-03-21T16:08:33.766Z,15.00
2019-03-21T16:11:04.218Z,14.60
2019-03-21T16:13:34.449Z,16.07
2019-03-21T16:16:04.799Z,15.30
2019-03-21T16:18:35.047Z,14.70
2019-03-21T16:21:06.171Z,14.70
2019-03-21T16:23:36.683Z,15.97
2019-03-21T16:26:06.952Z,14.90
2019-03-21T16:28:37.223Z,15.00
2019-03-21T16:31:07.499Z,14.60
2019-03-21T16:33:37.746Z,14.03
2019-03-21T16:36:07.971Z,16.10
2019-03-21T16:38:38.284Z,14.87
2019-03-21T16:41:08.597Z,15.43
2019-03-21T16:43:38.883Z,16.00
2019-03-21T16:46:09.103Z,16.50
2019-03-21T16:48:39.337Z,14.50
2019-03-21T16:51:10.624Z,15.73
2019-03-21T16:53:43.690Z,15.93
2019-03-21T16:56:12.826Z,16.07
2019-03-21T16:58:43.062Z,15.30
2019-03-21T17:01:13.383Z,14.50
2019-03-21T17:03:43.668Z,15.10
2019-03-21T17:06:13.972Z,16.33
2019-03-21T17:08:44.213Z,17.27
2019-03-21T17:11:14.523Z,17.07
2019-03-21T17:13:44.836Z,17.17
2019-03-21T17:16:15.161Z,17.10
2019-03-21T17:18:45.449Z,17.50
2019-03-21T17:21:15.716Z,17.97
2019-03-21T17:23:46.144Z,14.10
2019-03-21T17:26:16.599Z,17.20
2019-03-21T17:28:46.868Z,15.57
2019-03-21T17:31:17.125Z,17.33
2019-03-21T17:33:47.427Z,17.10
2019-03-21T17:36:20.581Z,15.97
2019-03-21T17:38:49.685Z,15.60
2019-03-21T17:41:23.005Z,16.90
2019-03-21T17:43:53.289Z,17.10
2019-03-21T17:46:23.586Z,17.23
2019-03-21T17:48:54.816Z,17.33
2019-03-21T17:51:25.041Z,18.40
2019-03-21T17:53:55.349Z,18.83
2019-03-21T17:56:25.721Z,20.40
2019-03-21T17:58:56.011Z,19.10
2019-03-21T18:01:26.435Z,16.87
2019-03-21T18:03:57.569Z,19.77
2019-03-21T18:06:29.652Z,19.83
2019-03-21T18:08:59.941Z,20.47
2019-03-21T18:11:30.164Z,20.17
2019-03-21T18:14:00.448Z,19.80
2019-03-21T18:16:30.809Z,18.03
2019-03-21T18:19:01.031Z,20.80
2019-03-21T18:24:08.051Z,21.27
2019-03-21T18:26:38.262Z,21.50
2019-03-21T18:29:08.504Z,21.00
2019-03-21T18:31:40.012Z,20.77
2019-03-21T18:34:10.325Z,22.50
2019-03-21T18:36:40.541Z,23.80
2019-03-21T18:39:10.804Z,20.57
2019-03-21T18:41:41.099Z,21.97
2019-03-21T18:44:11.407Z,21.37
2019-03-21T18:46:41.755Z,20.80
2019-03-21T18:49:12.042Z,21.13
2019-03-21T18:51:42.339Z,22.80
2019-03-21T18:54:12.749Z,24.07
2019-03-21T18:56:42.978Z,24.47
2019-03-21T18:59:13.232Z,23.40
2019-03-21T19:01:43.460Z,24.00
2019-03-21T19:04:13.794Z,22.87
2019-03-21T19:06:44.066Z,22.50
2019-03-21T19:09:14.473Z,24.50
2019-03-21T19:11:44.754Z,23.13
2019-03-21T19:14:17.185Z,24.50
2019-03-21T19:16:47.516Z,23.00
2019-03-21T19:19:17.949Z,23.90
2019-03-21T19:21:48.201Z,24.40
2019-03-21T19:24:18.497Z,26.10
2019-03-21T19:26:48.979Z,23.97
2019-03-21T19:29:19.308Z,25.83
2019-03-21T19:31:49.733Z,24.90
2019-03-21T19:34:20.053Z,25.60
2019-03-21T19:36:53.673Z,24.60
2019-03-21T19:39:25.613Z,23.20
2019-03-21T19:41:55.881Z,25.10
2019-03-21T19:44:26.129Z,26.87
2019-03-21T19:46:56.396Z,23.83
2019-03-21T19:49:27.703Z,22.83
2019-03-21T19:51:57.952Z,20.50
2019-03-21T19:54:28.259Z,20.23
2019-03-21T19:56:58.602Z,22.37
2019-03-21T19:59:28.843Z,20.80
2019-03-21T20:01:59.615Z,20.80
2019-03-21T20:04:30.041Z,21.90
2019-03-21T20:07:00.351Z,22.07
2019-03-21T20:09:30.663Z,17.73
2019-03-21T20:12:01.146Z,20.07
2019-03-21T20:14:31.594Z,20.43
2019-03-21T20:17:01.937Z,20.43
2019-03-21T20:19:32.195Z,19.80
2019-03-21T20:22:02.461Z,19.13
2019-03-21T20:24:33.037Z,21.07
2019-03-21T20:27:03.416Z,22.20
2019-03-21T20:29:33.700Z,21.20
2019-03-21T20:32:04.039Z,21.37
2019-03-21T20:34:34.318Z,21.57
2019-03-21T20:37:04.666Z,22.23
2019-03-21T20:39:34.917Z,19.70
2019-03-21T20:42:05.279Z,22.07
2019-03-21T20:44:35.480Z,21.90
2019-03-21T20:47:06.182Z,21.00
2019-03-21T20:49:36.420Z,22.70
2019-03-21T20:52:06.695Z,23.40
2019-03-21T20:54:36.936Z,23.27
2019-03-21T20:57:07.156Z,22.00
2019-03-21T20:59:37.525Z,22.03
2019-03-21T21:02:07.954Z,21.73
2019-03-21T21:04:38.184Z,20.33
2019-03-21T21:07:08.419Z,21.30
2019-03-21T21:09:38.651Z,20.40
2019-03-21T21:12:08.925Z,20.10
2019-03-21T21:14:39.223Z,17.87
2019-03-21T21:17:09.495Z,18.90
2019-03-21T21:19:39.753Z,18.57
2019-03-21T21:22:11.064Z,19.70
2019-03-21T21:24:41.309Z,18.77
2019-03-21T21:27:11.517Z,17.90
2019-03-21T21:29:43.031Z,19.17
2019-03-21T21:32:13.486Z,19.83
2019-03-21T21:34:43.992Z,19.50
2019-03-21T21:37:14.246Z,18.27
2019-03-21T21:39:45.533Z,19.70
2019-03-21T21:42:15.801Z,18.40
2019-03-21T21:44:46.080Z,18.40
2019-03-21T21:47:16.350Z,18.77
2019-03-21T21:49:46.576Z,17.90
2019-03-21T21:52:16.877Z,19.53
2019-03-21T21:54:49.153Z,19.20
2019-03-21T21:57:19.032Z,18.90
2019-03-21T21:59:49.363Z,19.13
2019-03-21T22:02:19.642Z,18.93
2019-03-21T22:04:49.852Z,19.87
2019-03-21T22:07:20.210Z,18.87
2019-03-21T22:09:50.570Z,21.77
2019-03-21T22:12:20.860Z,19.03
2019-03-21T22:14:51.194Z,19.10
2019-03-21T22:17:21.472Z,19.17
2019-03-21T22:19:51.839Z,18.67
2019-03-21T22:22:22.224Z,19.53
2019-03-21T22:24:52.466Z,19.30
2019-03-21T22:27:22.718Z,20.90
2019-03-21T22:29:53.008Z,20.97
2019-03-21T22:32:23.337Z,19.50
2019-03-21T22:34:53.614Z,20.87
2019-03-21T22:37:23.861Z,18.67
2019-03-21T22:39:54.186Z,18.93
2019-03-21T22:42:24.420Z,19.60
2019-03-21T22:44:54.654Z,20.37
2019-03-21T22:47:25.043Z,18.87
2019-03-21T22:49:55.347Z,19.80
2019-03-21T22:52:26.672Z,20.27
2019-03-21T22:54:56.985Z,19.23
2019-03-21T22:57:28.353Z,19.77
2019-03-21T22:59:58.591Z,19.93
2019-03-21T23:02:29.036Z,19.97
2019-03-21T23:04:59.361Z,20.20
2019-03-21T23:07:29.735Z,20.20
2019-03-21T23:10:00.155Z,23.53
2019-03-21T23:12:30.700Z,20.57
2019-03-21T23:15:01.315Z,21.73
2019-03-21T23:17:31.729Z,21.37
2019-03-21T23:20:02.033Z,20.67
2019-03-21T23:22:33.545Z,19.57
2019-03-21T23:25:04.655Z,21.93
2019-03-21T23:27:36.097Z,20.77
2019-03-21T23:30:08.271Z,21.30
2019-03-21T23:32:39.650Z,21.47
2019-03-21T23:35:10.160Z,21.03
2019-03-21T23:37:40.514Z,20.90
2019-03-21T23:40:10.941Z,21.27
2019-03-21T23:42:41.252Z,22.13
2019-03-21T23:45:12.010Z,20.50
2019-03-21T23:47:42.517Z,22.13
2019-03-21T23:50:13.336Z,21.83
2019-03-21T23:52:43.966Z,23.73
2019-03-21T23:55:14.711Z,25.77
2019-03-21T23:57:45.051Z,26.93
